createdAt,value
2023-01-17T19:12:56.933Z,98073.78
2023-01-17T19:15:25.043Z,98084.81
2023-01-17T19:17:53.282Z,98084.59
2023-01-17T19:20:21.453Z,98079.78
2023-01-17T19:22:49.345Z,98087.38
2023-01-17T19:25:17.375Z,98084.06
2023-01-17T19:27:45.328Z,98085.22
2023-01-17T19:30:15.721Z,98083.50
2023-01-17T19:32:43.653Z,98085.19
2023-01-17T19:35:13.998Z,98076.72
2023-01-17T19:37:49.433Z,98071.66
2023-01-17T19:40:19.689Z,98076.59
2023-01-17T19:42:48.142Z,98063.03
2023-01-17T19:45:16.643Z,98058.72
2023-01-17T19:47:44.911Z,98069.19
2023-01-17T19:50:13.076Z,98067.38
2023-01-17T19:52:42.319Z,98062.69
2023-01-17T19:55:10.520Z,98066.22
2023-01-17T19:57:40.662Z,98059.81
2023-01-17T20:00:13.333Z,98055.78
2023-01-17T20:02:41.297Z,98067.81
2023-01-17T20:05:09.428Z,98059.31
2023-01-17T20:07:37.383Z,98054.03
2023-01-17T20:10:05.798Z,98052.25
2023-01-17T20:12:33.766Z,98055.44
2023-01-17T20:15:01.710Z,98041.09
2023-01-17T20:17:34.552Z,98067.09
2023-01-17T20:20:04.718Z,98046.75
2023-01-17T20:22:32.782Z,98056.25
2023-01-17T20:25:00.917Z,98038.63
2023-01-17T20:27:29.001Z,98050.50
2023-01-17T20:30:08.181Z,98048.50
2023-01-17T20:32:46.772Z,98036.50
2023-01-17T20:35:15.872Z,98023.88
2023-01-17T20:37:44.136Z,98023.72
2023-01-17T20:40:12.715Z,98022.25
2023-01-17T20:42:40.952Z,98029.81
2023-01-17T20:45:10.167Z,98011.59
2023-01-17T20:47:39.037Z,98021.56
2023-01-17T20:50:10.480Z,98022.56
2023-01-17T20:52:38.904Z,98036.66
2023-01-17T20:55:08.519Z,98030.72
2023-01-17T20:57:36.927Z,98021.22
2023-01-17T21:00:05.999Z,98030.34
2023-01-17T21:02:34.628Z,98040.53
2023-01-17T21:05:03.958Z,98031.53
2023-01-17T21:07:32.005Z,98029.19
2023-01-17T21:10:00.629Z,98026.66
2023-01-17T21:12:35.677Z,98029.84
2023-01-17T21:15:26.288Z,98031.59
2023-01-17T21:17:57.136Z,98027.81
2023-01-17T21:20:28.912Z,98030.88
2023-01-17T21:22:56.851Z,98034.38
2023-01-17T21:25:24.806Z,98023.22
2023-01-17T21:27:53.039Z,98019.22
2023-01-17T21:30:21.060Z,98023.22
2023-01-17T21:32:49.141Z,98022.25
2023-01-17T21:35:18.160Z,98021.63
2023-01-17T21:37:51.505Z,98034.97
2023-01-17T21:40:19.837Z,98019.50
2023-01-17T21:42:47.859Z,98025.75
2023-01-17T21:45:15.803Z,98012.97
2023-01-17T21:47:44.757Z,98010.06
2023-01-17T21:50:22.200Z,98004.81
2023-01-17T21:52:56.472Z,98010.47
2023-01-17T21:55:43.170Z,98002.06
2023-01-17T21:58:34.479Z,98011.44
2023-01-17T22:01:18.194Z,98006.31
2023-01-17T22:03:49.489Z,98024.94
2023-01-17T22:06:18.375Z,98018.19
2023-01-17T22:08:47.008Z,98023.31
2023-01-17T22:11:21.111Z,98019.22
2023-01-17T22:13:49.293Z,98028.84
2023-01-17T22:16:20.010Z,98027.66
2023-01-17T22:18:48.105Z,98031.56
2023-01-17T22:21:21.842Z,98030.25
2023-01-17T22:24:00.805Z,98041.91
2023-01-17T22:26:31.052Z,98043.09
2023-01-17T22:29:02.670Z,98047.44
2023-01-17T22:31:31.337Z,98046.75
2023-01-17T22:34:02.249Z,98059.88
2023-01-17T22:36:34.201Z,98061.19
2023-01-17T22:39:02.366Z,98059.84
2023-01-17T22:41:31.532Z,98055.25
2023-01-17T22:44:02.509Z,98063.16
2023-01-17T22:46:33.081Z,98063.53
2023-01-17T22:49:01.085Z,98063.09
2023-01-17T22:51:29.299Z,98065.34
2023-01-17T22:53:59.942Z,98061.78
2023-01-17T22:56:33.019Z,98064.50
2023-01-17T22:59:01.626Z,98066.31
2023-01-17T23:01:31.681Z,98064.44
2023-01-17T23:04:03.442Z,98063.31
2023-01-17T23:06:36.355Z,98064.38
2023-01-17T23:09:10.740Z,98061.75
2023-01-17T23:11:43.963Z,98055.38
2023-01-17T23:14:23.868Z,98046.75
2023-01-17T23:17:20.043Z,98052.06
2023-01-17T23:19:51.130Z,98042.09
2023-01-17T23:22:26.920Z,98048.59
2023-01-17T23:25:00.766Z,98036.97
2023-01-17T23:27:52.594Z,98046.81
2023-01-17T23:30:26.191Z,98039.19
2023-01-17T23:32:56.951Z,98038.50
2023-01-17T23:35:29.845Z,98035.41
2023-01-17T23:38:16.976Z,98029.88
2023-01-17T23:41:05.727Z,98030.25
2023-01-17T23:43:34.816Z,98050.94
2023-01-17T23:46:03.973Z,98052.31
2023-01-17T23:48:32.167Z,98046.53
2023-01-17T23:51:09.911Z,98062.56
2023-01-17T23:53:39.059Z,98059.44
2023-01-17T23:56:27.306Z,98054.03
2023-01-17T23:58:55.149Z,98055.19
